createdAt,value
2022-12-06T00:02:22.122Z,20.41
2022-12-06T00:04:54.225Z,20.38
2022-12-06T00:07:26.260Z,20.34
2022-12-06T00:09:58.606Z,20.31
2022-12-06T00:12:31.161Z,20.29
2022-12-06T00:15:03.199Z,20.26
2022-12-06T00:17:38.794Z,20.22
2022-12-06T00:20:14.878Z,20.19
2022-12-06T00:22:46.887Z,20.17
2022-12-06T00:25:18.915Z,20.13
2022-12-06T00:27:51.932Z,20.11
2022-12-06T00:30:23.943Z,20.08
2022-12-06T00:32:55.939Z,20.04
2022-12-06T00:35:27.943Z,20.02
2022-12-06T00:37:59.917Z,19.99
2022-12-06T00:40:31.973Z,19.96
2022-12-06T00:43:03.958Z,19.94
2022-12-06T00:45:36.074Z,19.91
2022-12-06T00:48:08.062Z,19.89
2022-12-06T00:50:40.081Z,19.86
2022-12-06T00:53:12.015Z,19.83
2022-12-06T00:55:44.387Z,19.81
2022-12-06T00:58:16.695Z,19.79
2022-12-06T01:00:49.037Z,19.76
2022-12-06T01:03:21.220Z,19.74
2022-12-06T01:05:53.340Z,19.71
2022-12-06T01:08:25.346Z,19.70
2022-12-06T01:10:57.361Z,19.67
2022-12-06T01:13:29.754Z,19.65
2022-12-06T01:16:09.915Z,19.62
2022-12-06T01:18:43.308Z,19.60
2022-12-06T01:21:18.286Z,19.57
2022-12-06T01:23:51.164Z,19.55
2022-12-06T01:26:24.723Z,19.53
2022-12-06T01:28:58.387Z,19.51
2022-12-06T01:31:37.182Z,19.48
2022-12-06T01:34:15.807Z,19.46
2022-12-06T01:36:49.347Z,19.43
2022-12-06T01:39:21.224Z,19.40
2022-12-06T01:41:53.423Z,19.38
2022-12-06T01:44:47.531Z,19.36
2022-12-06T01:47:26.628Z,19.34
2022-12-06T01:50:01.767Z,19.32
2022-12-06T01:52:58.814Z,19.29
2022-12-06T01:55:34.132Z,19.26
2022-12-06T01:58:21.550Z,19.25
2022-12-06T02:00:53.576Z,19.22
2022-12-06T02:03:28.571Z,19.20
2022-12-06T02:06:03.683Z,19.18
2022-12-06T02:08:36.053Z,19.16
2022-12-06T02:11:08.583Z,19.13
2022-12-06T02:13:41.848Z,19.11
2022-12-06T02:16:32.495Z,19.10
2022-12-06T02:19:21.815Z,19.07
2022-12-06T02:22:19.730Z,19.06
2022-12-06T02:25:03.767Z,19.03
2022-12-06T02:27:44.744Z,19.01
2022-12-06T02:30:40.543Z,18.98
2022-12-06T02:33:24.274Z,18.97
2022-12-06T02:36:14.130Z,18.95
2022-12-06T02:38:55.420Z,18.93
2022-12-06T02:41:31.233Z,18.91
2022-12-06T02:44:08.800Z,18.90
2022-12-06T02:46:43.870Z,18.88
2022-12-06T02:49:16.236Z,18.86
2022-12-06T02:51:48.938Z,18.84
2022-12-06T02:54:21.560Z,18.82
2022-12-06T02:56:53.463Z,18.80
2022-12-06T02:59:25.408Z,18.78
2022-12-06T03:01:59.845Z,18.77
2022-12-06T03:04:53.970Z,18.75
2022-12-06T03:07:38.658Z,18.72
2022-12-06T03:10:49.678Z,18.70
2022-12-06T03:13:26.740Z,18.68
2022-12-06T03:16:24.821Z,18.66
2022-12-06T03:19:16.707Z,18.64
2022-12-06T03:22:13.710Z,18.61
2022-12-06T03:24:47.269Z,18.60
2022-12-06T03:27:20.343Z,18.57
2022-12-06T03:29:56.244Z,18.55
2022-12-06T03:32:31.491Z,18.53
2022-12-06T03:35:07.517Z,18.52
2022-12-06T03:37:41.447Z,18.50
2022-12-06T03:40:23.662Z,18.48
2022-12-06T03:42:56.363Z,18.46
2022-12-06T03:45:56.079Z,18.44
2022-12-06T03:48:36.529Z,18.43
2022-12-06T03:51:11.115Z,18.41
2022-12-06T03:53:49.024Z,18.40
2022-12-06T03:56:24.589Z,18.38
2022-12-06T03:58:56.589Z,18.37
2022-12-06T04:01:28.730Z,18.36
2022-12-06T04:04:01.014Z,18.34
2022-12-06T04:06:33.255Z,18.32
2022-12-06T04:09:23.820Z,18.31
2022-12-06T04:11:55.696Z,18.29
2022-12-06T04:14:32.663Z,18.27
2022-12-06T04:17:23.192Z,18.26
2022-12-06T04:19:55.169Z,18.24
2022-12-06T04:22:45.671Z,18.22
2022-12-06T04:25:17.641Z,18.21
2022-12-06T04:28:08.354Z,18.18
2022-12-06T04:30:59.386Z,18.17
2022-12-06T04:33:50.345Z,18.16
2022-12-06T04:36:41.009Z,18.14
2022-12-06T04:39:17.585Z,18.12
2022-12-06T04:42:11.864Z,18.11
2022-12-06T04:44:43.993Z,18.09
2022-12-06T04:47:16.022Z,18.08
2022-12-06T04:49:47.994Z,18.07
2022-12-06T04:52:20.091Z,18.04
2022-12-06T04:54:51.966Z,18.03
2022-12-06T04:57:23.866Z,18.02
2022-12-06T04:59:55.749Z,18.01
2022-12-06T05:02:27.668Z,18.00
2022-12-06T05:05:00.115Z,17.98
2022-12-06T05:07:32.113Z,17.97
2022-12-06T05:10:04.533Z,17.96
2022-12-06T05:12:36.495Z,17.95
2022-12-06T05:15:09.121Z,17.95
2022-12-06T05:17:41.084Z,17.95
2022-12-06T05:20:14.652Z,17.95
2022-12-06T05:22:46.822Z,17.97
2022-12-06T05:25:18.795Z,17.99
2022-12-06T05:27:50.749Z,18.02
2022-12-06T05:30:22.726Z,18.07
2022-12-06T05:32:57.087Z,18.12
2022-12-06T05:35:29.357Z,18.18
2022-12-06T05:38:01.288Z,18.25
2022-12-06T05:40:33.188Z,18.32
2022-12-06T05:43:05.131Z,18.43
2022-12-06T05:45:37.969Z,18.54
2022-12-06T05:48:09.928Z,18.67
2022-12-06T05:50:41.838Z,18.78
2022-12-06T05:53:13.967Z,18.89
2022-12-06T05:55:46.233Z,18.98
2022-12-06T05:58:19.452Z,19.08
2022-12-06T06:00:51.585Z,19.17
2022-12-06T06:03:24.827Z,19.26
2022-12-06T06:05:59.417Z,19.34
2022-12-06T06:08:32.212Z,19.43
2022-12-06T06:11:04.026Z,19.51
2022-12-06T06:13:35.944Z,19.56
2022-12-06T06:16:08.351Z,19.63
2022-12-06T06:18:40.501Z,19.69
2022-12-06T06:21:12.610Z,19.75
2022-12-06T06:23:44.531Z,19.80
2022-12-06T06:26:16.462Z,19.84
2022-12-06T06:28:48.416Z,19.88
2022-12-06T06:31:20.695Z,19.93
2022-12-06T06:33:52.633Z,19.99
2022-12-06T06:36:24.589Z,20.03
2022-12-06T06:38:59.072Z,20.07
2022-12-06T06:41:30.979Z,20.12
2022-12-06T06:44:02.964Z,20.17
2022-12-06T06:46:34.970Z,20.20
2022-12-06T06:49:06.949Z,20.23
2022-12-06T06:51:38.875Z,20.28
2022-12-06T06:54:11.346Z,20.31
2022-12-06T06:56:43.318Z,20.35
2022-12-06T06:59:15.371Z,20.38
2022-12-06T07:01:47.381Z,20.43
2022-12-06T07:04:19.492Z,20.48
2022-12-06T07:06:51.362Z,20.53
2022-12-06T07:09:23.387Z,20.58
2022-12-06T07:11:55.288Z,20.62
2022-12-06T07:14:27.190Z,20.67
2022-12-06T07:16:59.356Z,20.72
2022-12-06T07:19:31.368Z,20.77
2022-12-06T07:22:03.353Z,20.81
2022-12-06T07:24:41.310Z,20.84
2022-12-06T07:27:14.298Z,20.87
2022-12-06T07:29:46.265Z,20.89
2022-12-06T07:32:18.175Z,20.92
2022-12-06T07:34:50.104Z,20.93
2022-12-06T07:37:23.959Z,20.94
2022-12-06T07:39:55.991Z,20.96
2022-12-06T07:42:46.552Z,20.97
2022-12-06T07:45:18.556Z,21.00
2022-12-06T07:47:50.658Z,21.02
2022-12-06T07:50:23.301Z,21.03
2022-12-06T07:52:55.343Z,21.05
2022-12-06T07:55:27.216Z,21.06
2022-12-06T07:57:59.127Z,21.08
2022-12-06T08:00:32.104Z,21.11
2022-12-06T08:03:04.399Z,21.14
2022-12-06T08:05:36.557Z,21.18
2022-12-06T08:08:08.880Z,21.20
2022-12-06T08:10:40.850Z,21.24
2022-12-06T08:13:12.829Z,21.28
2022-12-06T08:15:45.257Z,21.31
2022-12-06T08:18:17.250Z,21.34
2022-12-06T08:20:49.446Z,21.37
2022-12-06T08:23:21.401Z,21.40
2022-12-06T08:26:18.939Z,21.43
2022-12-06T08:28:51.633Z,21.47
2022-12-06T08:31:24.375Z,21.50
2022-12-06T08:33:56.643Z,21.53
2022-12-06T08:36:31.858Z,21.54
2022-12-06T08:39:03.874Z,21.57
2022-12-06T08:41:54.987Z,21.58
2022-12-06T08:44:28.704Z,21.61
2022-12-06T08:47:01.776Z,21.61
2022-12-06T08:49:33.735Z,21.62
2022-12-06T08:52:05.713Z,21.62
2022-12-06T08:54:38.289Z,21.63
2022-12-06T08:57:10.235Z,21.64
2022-12-06T08:59:42.373Z,21.63
2022-12-06T09:02:14.674Z,21.64
2022-12-06T09:04:46.985Z,21.65
2022-12-06T09:07:19.761Z,21.66
2022-12-06T09:09:53.173Z,21.68
2022-12-06T09:12:25.448Z,21.70
2022-12-06T09:14:57.369Z,21.73
2022-12-06T09:17:29.333Z,21.76
2022-12-06T09:20:05.866Z,21.79
2022-12-06T09:22:38.471Z,21.82
2022-12-06T09:25:10.810Z,21.84
2022-12-06T09:27:42.716Z,21.87
2022-12-06T09:30:15.684Z,21.89
2022-12-06T09:32:48.615Z,21.91
2022-12-06T09:35:24.844Z,21.91
2022-12-06T09:37:57.173Z,21.93
2022-12-06T09:40:41.258Z,21.94
2022-12-06T09:43:23.734Z,21.95
2022-12-06T09:45:55.550Z,21.95
2022-12-06T09:48:27.360Z,21.96
2022-12-06T09:51:08.470Z,21.98
2022-12-06T09:53:47.553Z,21.99
2022-12-06T09:56:24.390Z,22.01
2022-12-06T09:58:56.773Z,22.03
2022-12-06T10:01:37.823Z,22.04
2022-12-06T10:04:09.735Z,22.05
2022-12-06T10:06:53.610Z,22.06
2022-12-06T10:09:31.640Z,22.07
2022-12-06T10:12:08.020Z,22.08
2022-12-06T10:14:58.468Z,22.10
2022-12-06T10:17:41.795Z,22.12
2022-12-06T10:20:31.811Z,22.12
2022-12-06T10:23:23.792Z,22.13
2022-12-06T10:26:04.803Z,22.13
2022-12-06T10:28:39.597Z,22.14
2022-12-06T10:31:15.197Z,22.16
2022-12-06T10:33:46.990Z,22.18
2022-12-06T10:36:41.868Z,22.20
2022-12-06T10:39:34.019Z,22.22
2022-12-06T10:42:09.080Z,22.25
2022-12-06T10:45:35.078Z,22.26
2022-12-06T10:48:13.775Z,22.29
2022-12-06T10:50:46.256Z,22.32
2022-12-06T10:53:19.194Z,22.33
2022-12-06T10:55:58.226Z,22.34
2022-12-06T10:58:33.047Z,22.35
2022-12-06T11:01:06.542Z,22.36
2022-12-06T11:03:40.104Z,22.37
2022-12-06T11:06:26.375Z,22.38
2022-12-06T11:08:59.596Z,22.41
2022-12-06T11:11:32.320Z,22.42
2022-12-06T11:14:11.930Z,22.42
2022-12-06T11:16:45.084Z,22.44
2022-12-06T11:19:22.997Z,22.45
2022-12-06T11:22:15.047Z,22.46
2022-12-06T11:24:55.352Z,22.47
2022-12-06T11:27:32.165Z,22.47
2022-12-06T11:30:04.972Z,22.48
2022-12-06T11:32:36.754Z,22.49
2022-12-06T11:35:12.285Z,22.50
2022-12-06T11:37:44.677Z,22.50
2022-12-06T11:40:22.860Z,22.51
2022-12-06T11:42:54.733Z,22.52
2022-12-06T11:45:27.841Z,22.52
2022-12-06T11:48:02.021Z,22.52
2022-12-06T11:50:34.655Z,22.52
2022-12-06T11:53:07.723Z,22.52
2022-12-06T11:55:43.551Z,22.53
2022-12-06T11:58:15.289Z,22.55
2022-12-06T12:01:16.620Z,22.56
2022-12-06T12:03:48.616Z,22.58
2022-12-06T12:06:22.933Z,22.59
2022-12-06T12:09:05.342Z,22.60
2022-12-06T12:11:42.117Z,22.61
2022-12-06T12:14:17.906Z,22.62
2022-12-06T12:16:50.130Z,22.63
2022-12-06T12:19:33.887Z,22.64
2022-12-06T12:22:24.620Z,22.65
2022-12-06T12:27:50.832Z,22.66
2022-12-06T12:30:27.515Z,22.67
2022-12-06T12:33:08.204Z,22.67
2022-12-06T12:35:41.118Z,22.68
2022-12-06T12:38:18.011Z,22.68
2022-12-06T12:40:51.072Z,22.68
2022-12-06T12:43:23.864Z,22.69
2022-12-06T12:46:07.243Z,22.71
2022-12-06T12:48:39.857Z,22.71
2022-12-06T12:51:28.781Z,22.73
2022-12-06T12:54:02.229Z,22.73
2022-12-06T12:56:35.543Z,22.72
2022-12-06T12:59:14.132Z,22.73
2022-12-06T13:01:47.509Z,22.73
2022-12-06T13:04:31.363Z,22.74
2022-12-06T13:07:15.179Z,22.75
2022-12-06T13:09:48.866Z,22.76
2022-12-06T13:12:30.764Z,22.76
2022-12-06T13:15:05.540Z,22.77
2022-12-06T13:17:37.617Z,22.77
2022-12-06T13:20:21.926Z,22.77
2022-12-06T13:22:54.916Z,22.78
2022-12-06T13:25:26.686Z,22.80
2022-12-06T13:28:05.028Z,22.80
2022-12-06T13:30:38.133Z,22.81
2022-12-06T13:33:21.364Z,22.82
2022-12-06T13:36:04.214Z,22.81
2022-12-06T13:38:36.947Z,22.82
2022-12-06T13:41:53.787Z,22.82
2022-12-06T13:44:44.316Z,22.81
2022-12-06T13:47:28.209Z,22.78
2022-12-06T13:50:15.583Z,22.74
2022-12-06T13:52:47.639Z,22.72
2022-12-06T13:55:25.541Z,22.68
2022-12-06T13:58:00.597Z,22.66
2022-12-06T14:00:34.208Z,22.64
2022-12-06T14:03:08.878Z,22.61
2022-12-06T14:08:33.176Z,22.57
2022-12-06T14:11:07.750Z,22.55
2022-12-06T14:13:40.071Z,22.54
2022-12-06T14:16:30.946Z,22.54
2022-12-06T14:19:04.307Z,22.54
2022-12-06T14:21:40.628Z,22.54
2022-12-06T14:24:25.794Z,22.53
2022-12-06T14:27:14.517Z,22.55
2022-12-06T14:30:25.617Z,22.56
2022-12-06T14:32:58.847Z,22.59
2022-12-06T14:35:36.228Z,22.60
2022-12-06T14:38:22.304Z,22.62
2022-12-06T14:41:12.923Z,22.64
2022-12-06T14:43:46.722Z,22.64
2022-12-06T14:46:18.602Z,22.66
2022-12-06T14:49:09.397Z,22.67
2022-12-06T14:51:41.357Z,22.71
2022-12-06T14:54:29.276Z,22.73
2022-12-06T14:57:02.125Z,22.76
2022-12-06T15:00:12.713Z,22.78
2022-12-06T15:02:27.048Z,22.80
2022-12-06T15:04:59.302Z,22.81
2022-12-06T15:07:32.404Z,22.81
2022-12-06T15:10:25.860Z,22.81
2022-12-06T15:13:06.716Z,22.82
2022-12-06T15:15:42.719Z,22.82
2022-12-06T15:18:14.517Z,22.82
2022-12-06T15:20:46.677Z,22.83
2022-12-06T15:23:39.088Z,22.83
2022-12-06T15:26:13.624Z,22.84
2022-12-06T15:28:45.491Z,22.86
2022-12-06T15:31:21.644Z,22.88
2022-12-06T15:33:53.986Z,22.89
2022-12-06T15:36:27.205Z,22.91
2022-12-06T15:38:59.037Z,22.91
2022-12-06T15:41:30.820Z,22.93
2022-12-06T15:44:02.584Z,22.94
2022-12-06T15:46:35.543Z,22.94
2022-12-06T15:49:07.332Z,22.94
2022-12-06T15:51:39.087Z,22.95
2022-12-06T15:54:18.279Z,22.95
2022-12-06T15:56:50.296Z,22.96
2022-12-06T15:59:22.096Z,22.97
2022-12-06T16:01:53.983Z,22.99
2022-12-06T16:04:30.347Z,23.00
2022-12-06T16:07:02.148Z,23.00
2022-12-06T16:09:33.984Z,23.02
2022-12-06T16:12:05.877Z,23.03
2022-12-06T16:14:37.685Z,23.04
2022-12-06T16:17:09.457Z,23.05
2022-12-06T16:19:59.887Z,23.06
2022-12-06T16:23:00.821Z,23.08
2022-12-06T16:25:33.059Z,23.09
2022-12-06T16:28:05.060Z,23.10
2022-12-06T16:30:36.969Z,23.11
2022-12-06T16:33:09.554Z,23.12
2022-12-06T16:35:41.392Z,23.12
2022-12-06T16:38:16.225Z,23.13
2022-12-06T16:40:48.610Z,23.13
2022-12-06T16:43:20.459Z,23.14
2022-12-06T16:45:52.273Z,23.15
2022-12-06T16:48:24.045Z,23.16
2022-12-06T16:50:55.921Z,23.16
2022-12-06T16:53:27.667Z,23.18
2022-12-06T16:55:59.482Z,23.20
2022-12-06T16:58:31.353Z,23.20
2022-12-06T17:01:05.339Z,23.22
2022-12-06T17:03:37.147Z,23.21
2022-12-06T17:06:09.406Z,23.22
2022-12-06T17:08:41.173Z,23.22
2022-12-06T17:11:35.156Z,23.23
2022-12-06T17:14:07.072Z,23.25
2022-12-06T17:16:39.342Z,23.26
2022-12-06T17:19:13.227Z,23.27
2022-12-06T17:21:45.599Z,23.28
2022-12-06T17:24:18.093Z,23.29
2022-12-06T17:26:49.920Z,23.31
2022-12-06T17:29:23.900Z,23.32
2022-12-06T17:31:56.272Z,23.34
2022-12-06T17:34:28.177Z,23.35
2022-12-06T17:37:00.082Z,23.36
2022-12-06T17:39:31.847Z,23.36
2022-12-06T17:42:22.436Z,23.37
2022-12-06T17:44:54.204Z,23.36
2022-12-06T17:47:26.059Z,23.35
2022-12-06T17:49:57.911Z,23.35
2022-12-06T17:52:29.901Z,23.34
2022-12-06T17:55:02.247Z,23.36
2022-12-06T17:57:34.652Z,23.36
2022-12-06T18:00:07.173Z,23.38
2022-12-06T18:02:38.972Z,23.38
2022-12-06T18:05:10.795Z,23.38
2022-12-06T18:07:42.599Z,23.38
2022-12-06T18:10:14.395Z,23.37
2022-12-06T18:12:46.205Z,23.36
2022-12-06T18:15:36.694Z,23.34
2022-12-06T18:18:08.538Z,23.33
2022-12-06T18:20:41.329Z,23.32
2022-12-06T18:23:13.204Z,23.31
2022-12-06T18:25:44.989Z,23.30
2022-12-06T18:28:16.909Z,23.27
2022-12-06T18:30:48.653Z,23.26
2022-12-06T18:33:22.556Z,23.25
2022-12-06T18:35:57.157Z,23.25
2022-12-06T18:38:29.019Z,23.25
2022-12-06T18:41:03.910Z,23.25
2022-12-06T18:43:35.974Z,23.24
2022-12-06T18:46:09.263Z,23.23
2022-12-06T18:48:41.904Z,23.23
2022-12-06T18:51:16.252Z,23.24
2022-12-06T18:53:48.480Z,23.24
2022-12-06T18:56:21.642Z,23.26
2022-12-06T18:58:53.578Z,23.26
2022-12-06T19:01:27.661Z,23.28
2022-12-06T19:04:01.061Z,23.29
2022-12-06T19:06:36.746Z,23.30
2022-12-06T19:09:12.627Z,23.31
2022-12-06T19:11:45.963Z,23.32
2022-12-06T19:14:18.020Z,23.33
2022-12-06T19:16:50.447Z,23.34
2022-12-06T19:19:25.841Z,23.35
2022-12-06T19:21:58.027Z,23.36
2022-12-06T19:24:30.214Z,23.38
2022-12-06T19:27:01.943Z,23.38
2022-12-06T19:29:35.845Z,23.39
2022-12-06T19:32:07.637Z,23.41
2022-12-06T19:34:39.812Z,23.43
2022-12-06T19:37:11.926Z,23.45
2022-12-06T19:39:44.215Z,23.46
2022-12-06T19:42:34.596Z,23.47
2022-12-06T19:45:06.863Z,23.49
2022-12-06T19:47:38.693Z,23.49
2022-12-06T19:50:13.806Z,23.50
2022-12-06T19:52:45.628Z,23.50
2022-12-06T19:55:17.477Z,23.51
2022-12-06T19:57:49.392Z,23.53
2022-12-06T20:00:22.884Z,23.53
2022-12-06T20:02:55.035Z,23.56
2022-12-06T20:05:26.921Z,23.56
2022-12-06T20:07:59.118Z,23.56
2022-12-06T20:10:30.931Z,23.54
2022-12-06T20:13:02.683Z,23.56
2022-12-06T20:15:34.603Z,23.56
2022-12-06T20:18:06.445Z,23.57
2022-12-06T20:20:38.237Z,23.57
2022-12-06T20:23:10.761Z,23.56
2022-12-06T20:25:42.873Z,23.57
2022-12-06T20:28:14.978Z,23.58
2022-12-06T20:30:48.387Z,23.58
2022-12-06T20:33:20.247Z,23.59
2022-12-06T20:35:51.989Z,23.61
2022-12-06T20:38:23.790Z,23.62
2022-12-06T20:40:55.534Z,23.63
2022-12-06T20:43:27.370Z,23.64
2022-12-06T20:46:07.629Z,23.65
2022-12-06T20:48:42.357Z,23.66
2022-12-06T20:51:15.378Z,23.66
2022-12-06T20:53:50.050Z,23.67
2022-12-06T20:56:22.313Z,23.69
2022-12-06T20:58:55.253Z,23.71
2022-12-06T21:01:28.057Z,23.72
2022-12-06T21:04:00.571Z,23.73
2022-12-06T21:06:32.375Z,23.74
2022-12-06T21:09:04.193Z,23.74
2022-12-06T21:11:36.175Z,23.72
2022-12-06T21:14:07.980Z,23.72
2022-12-06T21:16:40.233Z,23.69
2022-12-06T21:19:13.504Z,23.67
2022-12-06T21:21:49.724Z,23.64
2022-12-06T21:24:21.797Z,23.61
2022-12-06T21:26:53.583Z,23.59
2022-12-06T21:29:30.630Z,23.56
2022-12-06T21:32:02.956Z,23.52
2022-12-06T21:34:35.026Z,23.48
2022-12-06T21:37:06.951Z,23.44
2022-12-06T21:39:39.351Z,23.41
2022-12-06T21:42:15.623Z,23.36
2022-12-06T21:44:47.483Z,23.32
2022-12-06T21:47:19.348Z,23.28
2022-12-06T21:49:51.152Z,23.24
2022-12-06T21:52:23.011Z,23.21
2022-12-06T21:54:56.622Z,23.17
2022-12-06T21:57:28.404Z,23.12
2022-12-06T22:00:00.649Z,23.09
2022-12-06T22:02:32.853Z,23.04
2022-12-06T22:05:04.934Z,23.01
2022-12-06T22:07:36.870Z,22.97
2022-12-06T22:10:09.247Z,22.93
2022-12-06T22:12:41.091Z,22.89
2022-12-06T22:15:13.024Z,22.85
2022-12-06T22:17:44.803Z,22.81
2022-12-06T22:20:16.684Z,22.77
2022-12-06T22:22:48.515Z,22.73
2022-12-06T22:25:20.648Z,22.69
2022-12-06T22:27:54.007Z,22.65
2022-12-06T22:30:25.815Z,22.61
2022-12-06T22:32:58.024Z,22.57
2022-12-06T22:35:29.820Z,22.54
2022-12-06T22:38:01.571Z,22.50
2022-12-06T22:40:33.372Z,22.46
2022-12-06T22:43:08.687Z,22.43
2022-12-06T22:45:40.512Z,22.39
2022-12-06T22:48:12.425Z,22.35
2022-12-06T22:50:44.213Z,22.31
2022-12-06T22:53:15.996Z,22.27
2022-12-06T22:55:47.871Z,22.23
2022-12-06T22:58:19.599Z,22.19
2022-12-06T23:00:51.545Z,22.14
2022-12-06T23:03:23.480Z,22.11
2022-12-06T23:05:58.897Z,22.07
2022-12-06T23:08:30.908Z,22.03
2022-12-06T23:11:04.437Z,21.99
2022-12-06T23:13:36.154Z,21.95
2022-12-06T23:16:10.638Z,21.91
2022-12-06T23:18:43.882Z,21.87
2022-12-06T23:21:16.983Z,21.84
2022-12-06T23:23:49.828Z,21.80
2022-12-06T23:26:22.720Z,21.76
2022-12-06T23:28:54.477Z,21.72
2022-12-06T23:31:27.806Z,21.68
2022-12-06T23:34:04.481Z,21.64
2022-12-06T23:36:36.579Z,21.60
2022-12-06T23:39:08.431Z,21.56
2022-12-06T23:41:40.389Z,21.53
2022-12-06T23:44:12.953Z,21.49
2022-12-06T23:46:46.026Z,21.45
2022-12-06T23:49:19.679Z,21.41
2022-12-06T23:51:51.641Z,21.38
2022-12-06T23:54:23.430Z,21.34
2022-12-06T23:56:55.279Z,21.31
2022-12-06T23:59:27.037Z,21.27
